ADDS METAR Data INFO
IDs: Format: Raw Decoded Include TAF

Data at: 0331 UTC 19 Jul 2018

KFDY 190253Z AUTO 10006KT 10SM CLR 21/12 A3007 RMK AO2 SLP172 T02060122 53010
KFDY 190153Z AUTO 10006KT 10SM CLR 22/14 A3005 RMK AO2 SLP166 T02170139
KFDY 190053Z AUTO 08007KT 10SM CLR 24/13 A3003 RMK AO2 SLP162 T02390133
KFDY 182353Z AUTO 09004KT 10SM FEW060 26/13 A3003 RMK AO2 SLP161 T02610133 10278 20256 56006
KFDY 182253Z AUTO 08006KT 10SM OVC060 26/13 A3004 RMK AO2 SLP163 T02610128
KFDY 182153Z AUTO 07003KT 10SM FEW060 27/12 A3004 RMK AO2 SLP163 T02720122
KFDY 182053Z AUTO 08004KT 10SM BKN055 27/13 A3005 RMK AO2 SLP168 T02670128 58008
KFDY 181953Z AUTO 10006KT 10SM OVC055 27/13 A3007 RMK AO2 SLP174 T02670128
KFDY 181853Z AUTO 11007KT 10SM OVC060 27/14 A3007 RMK AO2 SLP176 T02670139
KFDY 181753Z AUTO 07006KT 10SM SCT048 BKN060 26/13 A3008 RMK AO2 SLP178 T02610133 10267 20206 58007
KFDY 181653Z AUTO 10SM SCT045 26/14 A3010 RMK AO2 SLP182 T02610139
KFDY 181553Z AUTO 11009KT 10SM SCT042 BKN050 25/15 A3010 RMK AO2 SLP184 T02500150
KFDY 181453Z AUTO 08006KT 10SM CLR 24/16 A3010 RMK AO2 SLP183 T02440156 50003
KFDY 181353Z AUTO 09008KT 10SM CLR 23/15 A3010 RMK AO2 SLP186 T02330150
KFDY 181253Z AUTO 07008KT 10SM CLR 22/16 A3010 RMK AO2 SLP185 T02220156
KFDY 181153Z AUTO 07005KT 10SM CLR 21/15 A3009 RMK AO2 SLP181 T02060150 10206 20167 53013
KFDY 181053Z AUTO 06006KT 10SM CLR 18/14 A3008 RMK AO2 SLP177 T01830144
KFDY 180953Z AUTO 06005KT 10SM CLR 18/14 A3006 RMK AO2 SLP172 T01780139
KFDY 180853Z AUTO 05006KT 10SM CLR 18/14 A3005 RMK AO2 SLP168 T01830139 51003
KFDY 180753Z AUTO 01003KT 10SM CLR 17/14 A3005 RMK AO2 SLP168 T01720139
KFDY 180653Z AUTO 26003KT 10SM CLR 17/14 A3005 RMK AO2 SLP167 T01670139
KFDY 180553Z AUTO 26003KT 10SM CLR 18/14 A3005 RMK AO2 SLP165 T01780139 10267 20167 51006
KFDY 180453Z AUTO 00000KT 10SM CLR 19/14 A3004 RMK AO2 SLP162 T01940144 403000172
KFDY 180353Z AUTO 00000KT 10SM BKN070 22/13 A3004 RMK AO2 SLP161 T02220133
KFDY 180253Z AUTO 05005KT 10SM BKN075 24/13 A3003 RMK AO2 SLP158 T02390128 53015
KFDY 180153Z AUTO 01005KT 10SM BKN075 24/13 A3001 RMK AO2 SLP152 T02440128
KFDY 180053Z AUTO 36009KT 10SM CLR 26/12 A2999 RMK AO2 SLP145 T02560122
KFDY 172353Z AUTO 35010KT 10SM CLR 27/12 A2998 RMK AO2 SLP144 T02720122 10294 20272 53001
KFDY 172253Z AUTO 36010KT 10SM FEW075 28/12 A2997 RMK AO2 SLP141 T02830117
KFDY 172153Z AUTO 35009KT 10SM FEW075 29/12 A2997 RMK AO2 SLP139 T02940122
KFDY 172053Z AUTO 33010KT 10SM CLR 28/12 A2998 RMK AO2 SLP142 T02830117 58001
KFDY 171953Z AUTO 33010KT 10SM CLR 28/12 A2999 RMK AO2 SLP145 T02830122
KFDY 171853Z AUTO 33012G19KT 10SM FEW065 29/13 A2998 RMK AO2 SLP142 T02940133
KFDY 171753Z AUTO 32010G20KT 300V360 10SM CLR 29/11 A2998 RMK AO2 SLP142 T02940111 10300 20206 58005
KFDY 171653Z AUTO 35008G16KT 10SM CLR 29/13 A2999 RMK AO2 SLP145 T02890133
KFDY 171553Z AUTO 29012KT 10SM CLR 28/14 A2999 RMK AO2 SLP146 T02830139